createdAt,value
2019-05-18T00:00:09.222Z,73.10
2019-05-18T00:02:38.218Z,73.10
2019-05-18T00:05:26.373Z,73.20
2019-05-18T00:07:55.302Z,73.50
2019-05-18T00:10:24.187Z,73.10
2019-05-18T00:12:53.124Z,73.50
2019-05-18T00:15:22.021Z,74.00
2019-05-18T00:17:50.961Z,74.10
2019-05-18T00:20:19.872Z,74.30
2019-05-18T00:22:48.777Z,74.30
2019-05-18T00:25:17.709Z,74.30
2019-05-18T00:27:46.616Z,74.20
2019-05-18T00:30:15.654Z,74.30
2019-05-18T00:32:44.553Z,74.60
2019-05-18T00:35:16.678Z,74.50
2019-05-18T00:37:45.462Z,74.30
2019-05-18T00:40:14.504Z,75.30
2019-05-18T00:42:43.384Z,74.90
2019-05-18T00:45:13.313Z,74.80
2019-05-18T00:47:42.567Z,74.70
2019-05-18T00:50:11.751Z,74.50
2019-05-18T00:52:40.684Z,74.60
2019-05-18T00:55:10.012Z,74.70
2019-05-18T00:57:39.014Z,74.80
2019-05-18T01:00:09.060Z,74.70
2019-05-18T01:02:38.000Z,75.50
2019-05-18T01:05:07.341Z,75.00
2019-05-18T01:07:36.241Z,74.90
2019-05-18T01:10:07.039Z,75.00
2019-05-18T01:12:36.053Z,75.00
2019-05-18T01:15:07.133Z,74.70
2019-05-18T01:17:36.060Z,74.70
2019-05-18T01:20:06.850Z,74.80
2019-05-18T01:22:35.784Z,75.20
2019-05-18T01:25:06.078Z,75.60
2019-05-18T01:27:35.012Z,75.80
2019-05-18T01:30:06.172Z,75.60
2019-05-18T01:32:35.111Z,76.20
2019-05-18T01:35:05.723Z,76.30
2019-05-18T01:37:34.648Z,76.60
2019-05-18T01:40:04.341Z,76.10
2019-05-18T01:42:33.267Z,76.40
2019-05-18T01:45:15.817Z,76.50
2019-05-18T01:47:32.725Z,76.50
2019-05-18T01:50:01.662Z,76.10
2019-05-18T01:52:30.540Z,76.20
2019-05-18T01:54:59.483Z,76.30
2019-05-18T01:57:28.444Z,76.50
2019-05-18T01:59:57.409Z,76.80
2019-05-18T02:02:26.301Z,77.20
2019-05-18T02:04:55.228Z,77.40
2019-05-18T02:07:24.094Z,77.50
2019-05-18T02:09:53.031Z,77.10
2019-05-18T02:12:21.931Z,76.90
2019-05-18T02:14:50.851Z,76.80
2019-05-18T02:17:19.745Z,77.20
2019-05-18T02:19:48.679Z,77.00
2019-05-18T02:22:17.560Z,77.10
2019-05-18T02:24:46.506Z,77.20
2019-05-18T02:27:15.381Z,77.70
2019-05-18T02:29:44.280Z,77.80
2019-05-18T02:32:13.205Z,77.60
2019-05-18T02:34:42.092Z,78.00
2019-05-18T02:37:11.037Z,78.00
2019-05-18T02:39:39.921Z,77.90
2019-05-18T02:42:08.842Z,77.60
2019-05-18T02:44:37.742Z,77.90
2019-05-18T02:47:06.650Z,77.80
2019-05-18T02:49:35.536Z,78.00
2019-05-18T02:52:04.484Z,77.60
2019-05-18T02:54:33.418Z,77.80
2019-05-18T02:57:02.314Z,78.00
2019-05-18T02:59:31.250Z,78.00
2019-05-18T03:02:00.126Z,78.50
2019-05-18T03:04:29.068Z,79.30
2019-05-18T03:06:58.785Z,79.80
2019-05-18T03:09:27.779Z,78.70
2019-05-18T03:11:56.965Z,78.90
2019-05-18T03:14:25.905Z,79.00
2019-05-18T03:16:55.013Z,78.60
2019-05-18T03:19:23.943Z,78.70
2019-05-18T03:21:52.824Z,79.60
2019-05-18T03:24:21.765Z,79.40
2019-05-18T03:26:50.660Z,78.80
2019-05-18T03:29:19.607Z,79.10
2019-05-18T03:31:48.547Z,79.50
2019-05-18T03:34:17.423Z,79.00
2019-05-18T03:36:46.362Z,78.80
2019-05-18T03:39:15.250Z,78.90
2019-05-18T03:41:44.268Z,78.40
2019-05-18T03:44:13.153Z,78.90
2019-05-18T03:46:42.086Z,79.00
2019-05-18T03:49:25.326Z,79.00
2019-05-18T03:51:41.509Z,79.50
2019-05-18T03:54:10.440Z,80.40
2019-05-18T03:56:39.321Z,79.40
2019-05-18T03:59:08.247Z,79.60
2019-05-18T04:01:37.164Z,79.90
2019-05-18T04:04:06.080Z,79.20
2019-05-18T04:06:34.969Z,79.10
2019-05-18T04:09:05.234Z,79.10
2019-05-18T04:11:34.116Z,78.60
2019-05-18T04:14:07.660Z,78.50
2019-05-18T04:16:33.591Z,78.50
2019-05-18T04:19:02.515Z,78.20
2019-05-18T04:21:31.431Z,77.90
2019-05-18T04:24:00.325Z,77.30
2019-05-18T04:26:29.254Z,76.90
2019-05-18T04:28:58.143Z,76.50
2019-05-18T04:31:27.081Z,76.10
2019-05-18T04:33:55.976Z,75.40
2019-05-18T04:36:24.899Z,76.10
2019-05-18T04:38:53.810Z,75.00
2019-05-18T04:41:22.737Z,74.10
2019-05-18T04:43:51.630Z,74.10
2019-05-18T04:46:20.567Z,73.80
2019-05-18T04:48:49.474Z,72.50
2019-05-18T04:51:18.410Z,72.30
2019-05-18T04:53:47.315Z,71.70
2019-05-18T04:56:16.248Z,71.00
2019-05-18T04:58:45.139Z,70.90
2019-05-18T05:01:15.048Z,71.30
2019-05-18T05:03:43.996Z,72.50
2019-05-18T05:06:12.938Z,72.50
2019-05-18T05:11:39.921Z,72.70
2019-05-18T05:14:23.884Z,73.40
2019-05-18T05:17:08.660Z,73.90
2019-05-18T05:19:46.115Z,74.70
2019-05-18T05:22:49.399Z,74.50
2019-05-18T05:25:06.703Z,73.90
2019-05-18T05:27:58.949Z,74.30
2019-05-18T05:30:38.707Z,74.50
2019-05-18T05:33:07.355Z,73.50
2019-05-18T05:35:37.877Z,72.90
2019-05-18T05:38:06.978Z,73.20
2019-05-18T05:40:36.003Z,73.40
2019-05-18T05:43:04.897Z,73.80
2019-05-18T05:45:33.834Z,73.10
2019-05-18T05:48:02.760Z,72.60
2019-05-18T05:50:36.217Z,73.20
2019-05-18T05:53:02.219Z,72.90
2019-05-18T05:55:31.145Z,72.10
2019-05-18T05:58:00.035Z,71.70
2019-05-18T06:00:28.992Z,71.30
2019-05-18T06:02:57.905Z,72.10
2019-05-18T06:05:26.827Z,71.60
2019-05-18T06:07:55.716Z,71.70
2019-05-18T06:10:24.654Z,71.00
2019-05-18T06:12:53.545Z,71.00
2019-05-18T06:15:22.477Z,70.00
2019-05-18T06:17:51.405Z,70.00
2019-05-18T06:20:20.308Z,70.50
2019-05-18T06:22:49.234Z,70.00
2019-05-18T06:25:18.126Z,70.60
2019-05-18T06:27:47.087Z,69.90
2019-05-18T06:30:16.064Z,69.20
2019-05-18T06:32:44.992Z,69.90
2019-05-18T06:35:14.187Z,69.40
2019-05-18T06:37:43.224Z,70.60
2019-05-18T06:40:12.117Z,69.70
2019-05-18T06:42:41.055Z,69.30
2019-05-18T06:45:11.604Z,69.80
2019-05-18T06:47:40.489Z,68.80
2019-05-18T06:50:12.792Z,69.90
2019-05-18T06:52:41.432Z,70.50
2019-05-18T06:55:10.474Z,69.40
2019-05-18T06:57:39.948Z,69.00
2019-05-18T07:00:11.643Z,68.70
2019-05-18T07:02:40.533Z,67.60
2019-05-18T07:05:09.670Z,68.00
2019-05-18T07:07:38.563Z,66.70
2019-05-18T07:10:10.647Z,67.90
2019-05-18T07:12:39.551Z,66.30
2019-05-18T07:15:10.504Z,66.30
2019-05-18T07:17:39.392Z,67.40
2019-05-18T07:20:08.749Z,65.40
2019-05-18T07:22:37.755Z,64.40
2019-05-18T07:25:07.552Z,65.20
2019-05-18T07:27:36.640Z,65.10
2019-05-18T07:30:09.138Z,65.50
2019-05-18T07:32:38.110Z,65.20
2019-05-18T07:35:07.750Z,64.50
2019-05-18T07:37:36.652Z,65.60
2019-05-18T07:40:07.496Z,63.50
2019-05-18T07:42:36.394Z,63.80
2019-05-18T07:45:07.430Z,64.50
2019-05-18T07:47:36.324Z,64.20
2019-05-18T07:50:06.852Z,62.80
2019-05-18T07:52:35.735Z,62.40
2019-05-18T07:55:07.333Z,62.60
2019-05-18T07:57:36.231Z,62.00
2019-05-18T08:00:07.176Z,63.30
2019-05-18T08:02:36.116Z,60.60
2019-05-18T08:05:06.931Z,61.10
2019-05-18T08:07:35.871Z,60.90
2019-05-18T08:10:06.537Z,60.50
2019-05-18T08:12:35.508Z,60.90
2019-05-18T08:15:06.957Z,61.40
2019-05-18T08:17:35.901Z,60.60
2019-05-18T08:20:06.287Z,60.20
2019-05-18T08:22:35.263Z,60.70
2019-05-18T08:25:05.706Z,59.20
2019-05-18T08:27:34.705Z,61.00
2019-05-18T08:30:04.051Z,59.30
2019-05-18T08:32:32.983Z,58.40
2019-05-18T08:38:06.856Z,58.80
2019-05-18T08:40:35.847Z,57.70
2019-05-18T08:43:04.739Z,57.60
2019-05-18T08:45:33.635Z,57.30
2019-05-18T08:48:02.590Z,58.10
2019-05-18T08:50:31.476Z,57.00
2019-05-18T08:53:00.423Z,57.30
2019-05-18T08:55:29.463Z,58.80
2019-05-18T08:57:58.347Z,58.30
2019-05-18T09:00:27.237Z,56.70
2019-05-18T09:02:56.172Z,57.20
2019-05-18T09:05:25.060Z,55.80
2019-05-18T09:07:54.002Z,57.00
2019-05-18T09:10:22.901Z,57.50
2019-05-18T09:12:51.929Z,55.30
2019-05-18T09:15:20.938Z,55.80
2019-05-18T09:17:52.385Z,56.00
2019-05-18T09:20:21.272Z,55.20
2019-05-18T09:22:50.212Z,54.60
2019-05-18T09:25:19.241Z,54.00
2019-05-18T09:27:48.154Z,54.70
2019-05-18T09:30:17.763Z,53.60
2019-05-18T09:32:47.108Z,54.30
2019-05-18T09:35:16.339Z,53.90
2019-05-18T09:37:45.232Z,53.90
2019-05-18T09:40:14.374Z,54.00
2019-05-18T09:42:43.280Z,54.20
2019-05-18T09:45:13.205Z,54.30
2019-05-18T09:47:42.115Z,54.70
2019-05-18T09:50:12.587Z,53.00
2019-05-18T09:52:45.353Z,51.60
2019-05-18T09:55:12.131Z,52.90
2019-05-18T09:57:41.404Z,52.10
2019-05-18T10:00:12.330Z,52.90
2019-05-18T10:02:41.323Z,50.80
2019-05-18T10:05:10.748Z,50.40
2019-05-18T10:07:39.646Z,49.30
2019-05-18T10:10:09.199Z,52.10
2019-05-18T10:12:38.432Z,51.80
2019-05-18T10:15:08.624Z,49.50
2019-05-18T10:17:37.548Z,49.10
2019-05-18T10:20:08.055Z,48.80
2019-05-18T10:22:36.994Z,49.40
2019-05-18T10:25:09.172Z,48.80
2019-05-18T10:27:38.113Z,48.50
2019-05-18T10:30:07.897Z,48.50
2019-05-18T10:32:36.869Z,49.20
2019-05-18T10:35:08.903Z,48.20
2019-05-18T10:37:37.786Z,47.10
2019-05-18T10:40:08.935Z,48.00
2019-05-18T10:42:37.920Z,48.90
2019-05-18T10:45:09.339Z,48.90
2019-05-18T10:47:38.242Z,49.50
2019-05-18T10:50:07.813Z,48.30
2019-05-18T10:52:36.732Z,48.20
2019-05-18T10:55:07.876Z,49.70
2019-05-18T10:57:36.792Z,48.00
2019-05-18T11:00:10.651Z,47.50
2019-05-18T11:02:39.823Z,48.40
2019-05-18T11:05:09.108Z,48.20
2019-05-18T11:07:38.047Z,49.60
2019-05-18T11:10:10.816Z,49.80
2019-05-18T11:12:39.865Z,50.80
2019-05-18T11:15:09.851Z,50.00
2019-05-18T11:17:38.883Z,49.20
2019-05-18T11:20:08.867Z,49.50
2019-05-18T11:22:37.809Z,50.40
2019-05-18T11:25:08.543Z,50.80
2019-05-18T11:27:37.607Z,49.70
2019-05-18T11:30:10.706Z,50.20
2019-05-18T11:32:38.916Z,49.00
2019-05-18T11:35:08.945Z,48.40
2019-05-18T11:37:37.891Z,48.10
2019-05-18T11:40:09.716Z,47.70
2019-05-18T11:42:38.676Z,46.10
2019-05-18T11:45:08.811Z,46.00
2019-05-18T11:47:37.807Z,44.20
2019-05-18T11:50:11.132Z,45.30
2019-05-18T11:52:40.254Z,44.30
2019-05-18T11:55:09.881Z,43.20
2019-05-18T11:57:38.860Z,44.40
2019-05-18T12:00:09.388Z,44.20
2019-05-18T12:02:38.278Z,44.30
2019-05-18T12:05:07.819Z,43.30
2019-05-18T12:07:36.706Z,44.10
2019-05-18T12:10:07.496Z,44.30
2019-05-18T12:12:36.385Z,44.10
2019-05-18T12:15:10.395Z,43.20
2019-05-18T12:17:39.283Z,46.50
2019-05-18T12:20:08.904Z,47.10
2019-05-18T12:22:37.794Z,47.20
2019-05-18T12:25:07.285Z,45.20
2019-05-18T12:27:36.233Z,43.00
2019-05-18T12:30:09.843Z,42.70
2019-05-18T12:32:39.641Z,41.10
2019-05-18T12:35:10.300Z,42.30
2019-05-18T12:37:39.239Z,45.80
2019-05-18T12:40:09.328Z,40.70
2019-05-18T12:42:38.281Z,41.80
2019-05-18T12:45:07.873Z,41.60
2019-05-18T12:47:36.918Z,38.60
2019-05-18T12:50:09.352Z,37.80
2019-05-18T12:52:38.291Z,39.50
2019-05-18T12:55:09.187Z,38.40
2019-05-18T12:57:38.114Z,37.50
2019-05-18T13:00:09.156Z,37.90
2019-05-18T13:02:38.179Z,37.20
2019-05-18T13:05:07.309Z,35.30
2019-05-18T13:07:36.187Z,36.20
2019-05-18T13:10:10.657Z,33.90
2019-05-18T13:12:39.649Z,34.10
2019-05-18T13:15:10.840Z,32.90
2019-05-18T13:17:39.722Z,32.30
2019-05-18T13:20:09.846Z,34.40
2019-05-18T13:22:38.726Z,33.90
2019-05-18T13:25:08.664Z,36.50
2019-05-18T13:27:39.868Z,36.60
2019-05-18T13:30:12.881Z,37.50
2019-05-18T13:32:41.791Z,36.90
2019-05-18T13:35:11.296Z,34.80
2019-05-18T13:37:40.246Z,35.10
2019-05-18T13:40:09.742Z,35.00
2019-05-18T13:42:38.698Z,36.30
2019-05-18T13:45:09.486Z,36.00
2019-05-18T13:47:38.440Z,34.90
2019-05-18T13:50:08.194Z,36.80
2019-05-18T13:52:37.188Z,35.50
2019-05-18T13:55:07.142Z,37.10
2019-05-18T13:57:36.374Z,37.80
2019-05-18T14:00:09.181Z,37.50
2019-05-18T14:02:38.224Z,35.30
2019-05-18T14:05:07.800Z,35.80
2019-05-18T14:07:36.724Z,34.30
2019-05-18T14:10:12.648Z,33.50
2019-05-18T14:12:41.421Z,34.00
2019-05-18T14:15:11.611Z,32.10
2019-05-18T14:17:40.539Z,34.40
2019-05-18T14:20:10.339Z,33.40
2019-05-18T14:22:39.275Z,31.50
2019-05-18T14:25:18.767Z,32.80
2019-05-18T14:27:39.996Z,31.20
2019-05-18T14:30:10.017Z,31.70
2019-05-18T14:32:38.954Z,33.20
2019-05-18T14:35:09.049Z,32.50
2019-05-18T14:37:37.979Z,34.50
2019-05-18T14:40:08.371Z,31.70
2019-05-18T14:42:37.388Z,31.50
2019-05-18T14:45:08.889Z,30.90
2019-05-18T14:47:37.949Z,30.00
2019-05-18T14:50:07.740Z,29.80
2019-05-18T14:52:36.933Z,30.00
2019-05-18T14:55:06.575Z,30.50
2019-05-18T14:57:35.475Z,30.90
2019-05-18T15:00:06.915Z,32.20
2019-05-18T15:02:35.796Z,30.80
2019-05-18T15:05:07.031Z,30.80
2019-05-18T15:07:35.914Z,29.70
2019-05-18T15:10:09.494Z,29.20
2019-05-18T15:12:38.382Z,28.80
2019-05-18T15:15:09.771Z,29.90
2019-05-18T15:17:38.680Z,30.40
2019-05-18T15:20:09.517Z,30.10
2019-05-18T15:22:38.624Z,30.90
2019-05-18T15:25:08.446Z,30.90
2019-05-18T15:27:37.338Z,30.10
2019-05-18T15:30:08.957Z,30.80
2019-05-18T15:32:38.262Z,30.70
2019-05-18T15:35:09.091Z,31.80
2019-05-18T15:37:39.080Z,30.00
2019-05-18T15:40:08.364Z,31.50
2019-05-18T15:42:37.304Z,31.00
2019-05-18T15:45:07.685Z,30.50
2019-05-18T15:47:36.630Z,30.20
2019-05-18T15:50:07.818Z,30.00
2019-05-18T15:52:36.750Z,30.40
2019-05-18T15:55:10.399Z,31.00
2019-05-18T15:57:39.522Z,32.50
2019-05-18T16:00:10.075Z,31.90
2019-05-18T16:02:39.019Z,32.70
2019-05-18T16:05:09.106Z,34.30
2019-05-18T16:07:38.038Z,34.60
2019-05-18T16:10:08.697Z,34.70
2019-05-18T16:12:37.628Z,33.70
2019-05-18T16:15:08.325Z,33.40
2019-05-18T16:17:39.952Z,33.60
2019-05-18T16:20:08.653Z,32.80
2019-05-18T16:22:37.538Z,33.40
2019-05-18T16:25:07.965Z,33.20
2019-05-18T16:27:36.868Z,32.60
2019-05-18T16:30:08.091Z,34.10
2019-05-18T16:32:36.966Z,32.70
2019-05-18T16:35:08.322Z,33.90
2019-05-18T16:37:37.309Z,32.50
2019-05-18T16:40:07.152Z,32.70
2019-05-18T16:42:36.063Z,33.60
2019-05-18T16:45:06.955Z,33.30
2019-05-18T16:47:35.903Z,32.90
2019-05-18T16:50:06.337Z,33.10
2019-05-18T16:52:35.240Z,33.20
2019-05-18T16:55:05.676Z,32.70
2019-05-18T16:57:34.600Z,32.70
2019-05-18T17:00:07.267Z,33.00
2019-05-18T17:02:36.206Z,33.10
2019-05-18T17:05:07.360Z,32.30
2019-05-18T17:07:36.302Z,33.20
2019-05-18T17:10:07.292Z,34.20
2019-05-18T17:12:36.218Z,34.20
2019-05-18T17:15:07.698Z,34.40
2019-05-18T17:17:36.846Z,33.50
2019-05-18T17:20:06.437Z,33.80
2019-05-18T17:22:35.363Z,33.60
2019-05-18T17:25:04.936Z,36.10
2019-05-18T17:27:33.871Z,35.90
2019-05-18T17:30:02.833Z,35.60
2019-05-18T17:32:31.851Z,36.40
2019-05-18T17:35:00.719Z,35.80
2019-05-18T17:37:29.660Z,36.00
2019-05-18T17:39:58.689Z,36.70
2019-05-18T17:42:27.655Z,37.10
2019-05-18T17:44:56.606Z,37.60
2019-05-18T17:47:25.502Z,38.00
2019-05-18T17:49:54.431Z,38.50
2019-05-18T17:52:23.331Z,38.10
2019-05-18T17:54:52.271Z,40.20
2019-05-18T17:57:21.160Z,38.90
2019-05-18T17:59:50.090Z,39.50
2019-05-18T18:02:18.982Z,40.00
2019-05-18T18:04:47.951Z,40.20
2019-05-18T18:07:16.834Z,40.70
2019-05-18T18:09:45.849Z,42.30
2019-05-18T18:12:14.743Z,42.10
2019-05-18T18:14:43.677Z,42.40
2019-05-18T18:17:13.417Z,44.00
2019-05-18T18:19:43.401Z,43.80
2019-05-18T18:22:12.371Z,44.50
2019-05-18T18:24:42.350Z,44.80
2019-05-18T18:27:24.181Z,44.10
2019-05-18T18:29:41.870Z,44.40
2019-05-18T18:32:10.787Z,45.50
2019-05-18T18:34:39.678Z,45.90
2019-05-18T18:37:08.623Z,46.30
2019-05-18T18:39:38.886Z,46.90
2019-05-18T18:42:07.828Z,46.50
2019-05-18T18:44:36.719Z,47.20
2019-05-18T18:47:05.667Z,47.90
2019-05-18T18:49:34.561Z,48.70
2019-05-18T18:52:03.499Z,47.80
2019-05-18T18:54:32.389Z,48.00
2019-05-18T18:57:01.350Z,47.50
2019-05-18T18:59:30.313Z,49.50
2019-05-18T19:01:59.246Z,49.20
2019-05-18T19:04:28.146Z,49.00
2019-05-18T19:06:57.083Z,49.70
2019-05-18T19:09:25.961Z,49.70
2019-05-18T19:11:54.890Z,50.70
2019-05-18T19:14:23.781Z,51.20
2019-05-18T19:16:52.694Z,51.30
2019-05-18T19:19:21.584Z,51.70
2019-05-18T19:21:50.509Z,51.70
2019-05-18T19:24:19.398Z,52.00
2019-05-18T19:26:48.335Z,52.10
2019-05-18T19:29:17.264Z,51.20
2019-05-18T19:31:46.154Z,51.80
2019-05-18T19:34:15.078Z,51.80
2019-05-18T19:36:43.976Z,52.40
2019-05-18T19:39:12.902Z,52.90
2019-05-18T19:41:41.782Z,53.10
2019-05-18T19:44:11.057Z,52.90
2019-05-18T19:46:40.029Z,53.70
2019-05-18T19:49:08.993Z,53.70
2019-05-18T19:51:37.904Z,53.00
2019-05-18T19:54:08.598Z,53.60
2019-05-18T19:56:42.240Z,53.90
2019-05-18T19:59:25.750Z,54.40
2019-05-18T20:01:52.031Z,54.60
2019-05-18T20:04:20.975Z,55.30
2019-05-18T20:06:49.907Z,55.10
2019-05-18T20:09:18.801Z,55.30
2019-05-18T20:11:47.733Z,55.20
2019-05-18T20:14:16.588Z,55.10
2019-05-18T20:16:45.613Z,55.70
2019-05-18T20:19:14.522Z,55.90
2019-05-18T20:21:43.468Z,56.00
2019-05-18T20:24:12.355Z,56.30
2019-05-18T20:26:41.299Z,56.20
2019-05-18T20:29:10.167Z,56.20
2019-05-18T20:31:39.098Z,56.30
2019-05-18T20:34:07.990Z,56.70
2019-05-18T20:36:39.869Z,56.90
2019-05-18T20:39:08.808Z,57.10
2019-05-18T20:41:37.753Z,57.10
2019-05-18T20:44:06.807Z,57.80
2019-05-18T20:46:35.687Z,57.80
2019-05-18T20:49:04.624Z,57.40
2019-05-18T20:51:33.536Z,57.50
2019-05-18T20:54:02.531Z,58.10
2019-05-18T20:56:31.468Z,58.00
2019-05-18T20:59:00.394Z,57.90
2019-05-18T21:01:29.282Z,58.00
2019-05-18T21:03:59.781Z,58.00
2019-05-18T21:06:28.672Z,57.80
2019-05-18T21:08:57.721Z,58.00
2019-05-18T21:11:26.674Z,57.80
2019-05-18T21:13:57.697Z,57.70
2019-05-18T21:16:27.050Z,58.10
2019-05-18T21:18:55.945Z,58.50
2019-05-18T21:21:26.349Z,58.40
2019-05-18T21:23:55.598Z,58.30
2019-05-18T21:26:24.513Z,58.50
2019-05-18T21:28:59.144Z,58.60
2019-05-18T21:31:23.974Z,58.90
2019-05-18T21:33:52.846Z,59.00
2019-05-18T21:36:21.787Z,58.90
2019-05-18T21:38:50.728Z,59.10
2019-05-18T21:41:19.620Z,59.60
2019-05-18T21:43:48.596Z,59.90
2019-05-18T21:46:17.487Z,59.50
2019-05-18T21:48:46.443Z,59.70
2019-05-18T21:51:15.337Z,59.90
2019-05-18T21:53:44.261Z,60.20
2019-05-18T21:56:13.148Z,60.40
2019-05-18T21:58:42.085Z,60.90
2019-05-18T22:01:10.990Z,60.60
2019-05-18T22:03:43.572Z,60.90
2019-05-18T22:06:10.727Z,61.90
2019-05-18T22:08:39.623Z,62.40
2019-05-18T22:11:08.552Z,61.70
2019-05-18T22:13:37.434Z,61.90
2019-05-18T22:16:06.370Z,62.80
2019-05-18T22:18:35.243Z,62.30
2019-05-18T22:21:04.202Z,62.90
2019-05-18T22:23:33.077Z,63.00
2019-05-18T22:26:02.008Z,63.60
2019-05-18T22:28:30.890Z,63.40
2019-05-18T22:30:59.831Z,63.20
2019-05-18T22:33:28.724Z,64.30
2019-05-18T22:35:57.668Z,64.50
2019-05-18T22:38:26.594Z,64.50
2019-05-18T22:40:55.480Z,65.10
2019-05-18T22:43:24.418Z,65.90
2019-05-18T22:45:53.310Z,65.60
2019-05-18T22:48:22.227Z,65.80
2019-05-18T22:50:51.120Z,65.80
2019-05-18T22:53:20.046Z,66.20
2019-05-18T22:55:48.940Z,66.20
2019-05-18T22:58:17.874Z,66.60
2019-05-18T23:00:46.758Z,66.50
2019-05-18T23:03:15.703Z,66.10
2019-05-18T23:05:44.601Z,66.90
2019-05-18T23:08:13.537Z,66.90
2019-05-18T23:10:42.413Z,66.50
2019-05-18T23:13:11.343Z,66.60
2019-05-18T23:15:40.304Z,66.80
2019-05-18T23:18:09.271Z,66.70
2019-05-18T23:20:38.300Z,66.90
2019-05-18T23:23:07.188Z,66.30
2019-05-18T23:25:36.129Z,66.30
2019-05-18T23:28:05.008Z,66.20
2019-05-18T23:30:33.934Z,66.30
2019-05-18T23:33:02.822Z,66.10
2019-05-18T23:35:31.757Z,66.80
2019-05-18T23:38:00.631Z,67.30
2019-05-18T23:40:29.603Z,67.50
2019-05-18T23:42:58.496Z,67.70
2019-05-18T23:45:27.532Z,68.40
2019-05-18T23:47:59.414Z,68.60
2019-05-18T23:50:26.999Z,68.70
2019-05-18T23:52:55.883Z,68.80
2019-05-18T23:55:24.836Z,68.80
2019-05-18T23:57:53.724Z,68.80
